»·PEaware :: JBU186 KLAS-KLAX

JBU186 :: KLAS-KLAX

FLIGHT INFORMATION

Flight Status: Arrived
Operator:
JetBlue Airways
More flights by this operator :: More flights under this callsign
Pilot: Ben L. (6391)
Aircraft: AIRBUS A320
(A320)
More flights by this aircraft type
Origin: KLAS McCarran Intl
United States
Destination: KLAX Los Angeles Intl
United States
More flights between these airports :: More routes between these airports
Route: BOACH8 RIKII SHTNR ANJLL2
File this flight plan on PilotEdge
Remarks:
Altitude:
(Current/Filed)
26,000ft
Speed:
(Current/Filed)
450kts
Departed: 31-Dec-17 08:36 AM
Arrived: 31-Dec-17 09:19 AM
Distance/Time
Traveled:
205nm/0:43
Distance/Time
To Go:
Arrived

Flight Plot

Page will automatically refresh every two minutes.

Flight plan parsing failed; only flown route is shown


Map Options




Map Legend


Flown Route
Filed Route
Departure Airport
Arrival Airport
Navaid (VOR, NDB)
Fix

Horizontal Profiles

Position Reports

Time Latitude Longitude Heading Altitude Ground
Speed
31-Dec-17 08:12 36.085259 -115.139418 0 2150ft 0kts
31-Dec-17 08:13 36.085259 -115.139418 0 2150ft 0kts
31-Dec-17 08:14 36.085259 -115.139418 0 2150ft 0kts
31-Dec-17 08:15 36.085259 -115.139418 0 2150ft 0kts
31-Dec-17 08:16 36.085259 -115.139418 0 2150ft 0kts
31-Dec-17 08:17 36.085259 -115.139418 0 2150ft 0kts
31-Dec-17 08:18 36.085259 -115.139418 0 2150ft 0kts
31-Dec-17 08:19 36.085259 -115.139418 0 2150ft 0kts
31-Dec-17 08:20 36.085259 -115.139418 0 2150ft 0kts
31-Dec-17 08:21 36.085259 -115.139418 0 2150ft 0kts
31-Dec-17 08:22 36.085259 -115.139418 0 2150ft 0kts
31-Dec-17 08:23 36.085259 -115.139418 0 2150ft 0kts
31-Dec-17 08:24 36.085259 -115.139418 0 2150ft 0kts
31-Dec-17 08:25 36.085259 -115.139418 0 2150ft 0kts
31-Dec-17 08:26 36.085259 -115.139418 0 2150ft 0kts
31-Dec-17 08:27 36.085259 -115.139418 0 2150ft 0kts
31-Dec-17 08:28 36.085259 -115.139418 0 2150ft 0kts
31-Dec-17 08:29 36.085259 -115.139418 0 2150ft 0kts
31-Dec-17 08:30 36.085259 -115.139418 0 2150ft 0kts
31-Dec-17 08:31 36.085138 -115.139390 340 2150ft 2kts
31-Dec-17 08:32 36.084674 -115.139260 29 2150ft 0kts
31-Dec-17 08:33 36.084642 -115.139397 90 2150ft 0kts
31-Dec-17 08:34 36.084642 -115.139397 90 2150ft 0kts
31-Dec-17 08:35 36.084642 -115.139397 90 2150ft 0kts
31-Dec-17 08:36 36.084646 -115.138816 88 2150ft 10kts
31-Dec-17 08:37 36.084549 -115.134535 116 2150ft 14kts
31-Dec-17 08:38 36.080346 -115.132937 179 2150ft 19kts
31-Dec-17 08:39 36.078289 -115.130220 90 2150ft 15kts
31-Dec-17 08:40 36.078282 -115.123522 88 2150ft 23kts
31-Dec-17 08:41 36.076448 -115.122652 272 2150ft 17kts
31-Dec-17 08:42 36.075138 -115.165265 264 3646ft 170kts
31-Dec-17 08:43 36.068794 -115.233621 257 5990ft 253kts
31-Dec-17 08:44 36.012347 -115.285455 199 7007ft 271kts
31-Dec-17 08:45 35.939580 -115.306140 186 7297ft 272kts
31-Dec-17 08:46 35.866951 -115.314165 185 10506ft 281kts
31-Dec-17 08:47 35.781682 -115.306663 176 12379ft 346kts
31-Dec-17 08:48 35.683079 -115.295611 179 14884ft 368kts
31-Dec-17 08:49 35.580331 -115.298626 184 17394ft 378kts
31-Dec-17 08:50 35.478265 -115.321486 212 19534ft 383kts
31-Dec-17 08:51 35.386278 -115.388557 213 21595ft 391kts
31-Dec-17 08:52 35.292201 -115.456805 213 23377ft 401kts
31-Dec-17 08:53 35.195654 -115.526652 213 25030ft 409kts
31-Dec-17 08:54 35.102841 -115.605782 228 26209ft 414kts
31-Dec-17 08:55 35.031040 -115.698224 228 26222ft 420kts
31-Dec-17 08:56 34.950872 -115.800890 228 26191ft 423kts
31-Dec-17 08:57 34.873807 -115.899293 228 26233ft 424kts
31-Dec-17 08:58 34.795824 -115.998584 228 26236ft 424kts
31-Dec-17 08:59 34.714749 -116.101510 228 26253ft 423kts
31-Dec-17 09:00 34.633835 -116.203924 228 26243ft 422kts
31-Dec-17 09:01 34.553200 -116.305669 228 26243ft 422kts
31-Dec-17 09:02 34.472150 -116.407663 228 26240ft 422kts
31-Dec-17 09:03 34.399968 -116.518111 244 26251ft 420kts
31-Dec-17 09:04 34.348433 -116.643280 244 26285ft 419kts
31-Dec-17 09:05 34.302145 -116.757363 244 26281ft 409kts
31-Dec-17 09:06 34.257897 -116.867071 244 23711ft 357kts
31-Dec-17 09:07 34.215689 -116.971767 246 21885ft 343kts
31-Dec-17 09:08 34.185566 -117.077664 251 20113ft 329kts
31-Dec-17 09:09 34.157614 -117.180464 251 18381ft 318kts
31-Dec-17 09:10 34.130346 -117.279503 251 16633ft 309kts
31-Dec-17 09:11 34.103762 -117.375818 252 15082ft 302kts
31-Dec-17 09:12 34.079847 -117.471603 253 13428ft 296kts
31-Dec-17 09:13 34.050138 -117.562531 247 12073ft 296kts
31-Dec-17 09:14 34.018574 -117.650322 246 11901ft 308kts
31-Dec-17 09:15 34.001308 -117.740300 263 10449ft 296kts
31-Dec-17 09:16 33.992562 -117.829230 263 9442ft 245kts
31-Dec-17 09:17 33.984219 -117.915393 262 8217ft 273kts
31-Dec-17 09:18 33.975208 -118.006798 262 6478ft 281kts
31-Dec-17 09:19 33.967778 -118.093837 263 4819ft 252kts
31-Dec-17 09:20 33.959367 -118.171177 263 3553ft 222kts
31-Dec-17 09:21 33.952132 -118.240910 264 2429ft 203kts
31-Dec-17 09:22 33.945278 -118.306646 264 1395ft 185kts
31-Dec-17 09:23 33.939526 -118.362197 264 495ft 160kts
31-Dec-17 09:24 33.934911 -118.406814 263 134ft 64kts
31-Dec-17 09:25 33.935310 -118.411666 288 134ft 2kts
31-Dec-17 09:26 33.937359 -118.412705 30 134ft 3kts

Navigation Log

Ident Type
Flight plan parsing failed, navigation log unavailable